Terminal Aerodrome Forecast
Issued by NWS

Home | Current Version | Previous Version | Text Only | Print | Product List | Glossary On
Versions: 1 2 3 4 5 6 7 8 9 10 11 12 13 14 15
000
FTUS42 KMHX 272330
TAFPGV
TAF
KPGV 272330Z 2800/2824 VRB04KT P6SM BKN250
     FM280200 VRB03KT P6SM VCTS SCT070CB BKN140
     FM280600 19004KT P6SM SCT080 SCT250
      AMD LTD TO CLD VIS AND WIND=

USA.gov is the U.S. government's official web portal to all federal, state and local government web resources and services.